Time;durP1;ratioP1;P1;durP2;ratioP2;P2;SDS_P1;SDS_P2;PMS_P1;PMS_P2;Temp;Humidity;BMP_temperature;BMP_pressure;BME280_temperature;BME280_humidity;BME280_pressure;Samples;Min_cycle;Max_cycle;Signal;HPM_P1;HPM_P2
2022/05/09 00:00:06;;;;;;;9.23;4.93;;;4.30;99.90;;;;;;5015145;28;20022;-67
2022/05/09 00:02:32;;;;;;;7.80;4.25;;;4.30;99.90;;;;;;5015606;28;20018;-67
2022/05/09 00:04:58;;;;;;;13.65;4.53;;;4.30;99.90;;;;;;5015548;28;20026;-66
2022/05/09 00:07:24;;;;;;;6.47;3.95;;;4.30;99.90;;;;;;5015108;28;20030;-66
2022/05/09 00:09:49;;;;;;;12.35;4.80;;;4.30;99.90;;;;;;5015470;28;20033;-67
2022/05/09 00:12:15;;;;;;;10.38;4.70;;;4.20;99.90;;;;;;5015463;28;20034;-67
2022/05/09 00:14:40;;;;;;;15.10;4.38;;;4.20;99.90;;;;;;5015560;28;20041;-67
2022/05/09 00:17:06;;;;;;;14.93;5.50;;;4.20;99.90;;;;;;5015381;28;20469;-67
2022/05/09 00:19:32;;;;;;;12.30;4.65;;;4.10;99.90;;;;;;5014689;28;20022;-67
2022/05/09 00:21:57;;;;;;;9.65;5.00;;;4.10;99.90;;;;;;5014727;28;20033;-67
2022/05/09 00:24:23;;;;;;;9.98;4.63;;;4.00;99.90;;;;;;5015173;28;20033;-66
2022/05/09 00:26:51;;;;;;;13.32;5.15;;;4.00;99.90;;;;;;5013894;28;20117;-67
2022/05/09 00:29:18;;;;;;;12.80;4.47;;;4.00;99.90;;;;;;5015068;28;20389;-67
2022/05/09 00:31:46;;;;;;;15.07;4.93;;;4.00;99.90;;;;;;5015072;28;20488;-67
2022/05/09 00:34:16;;;;;;;11.93;4.55;;;4.00;99.90;;;;;;5014963;28;20073;-67
2022/05/09 00:36:42;;;;;;;18.20;5.60;;;4.00;99.90;;;;;;5015112;28;20105;-66
2022/05/09 00:39:07;;;;;;;8.82;4.20;;;3.90;99.90;;;;;;5014909;28;20077;-66
2022/05/09 00:41:37;;;;;;;12.63;4.40;;;3.90;99.90;;;;;;5015102;28;20593;-66
2022/05/09 00:44:26;;;;;;;14.52;5.70;;;3.90;99.90;;;;;;5015091;28;20041;-67
2022/05/09 00:46:54;;;;;;;13.10;4.95;;;3.90;99.90;;;;;;5014519;28;20022;-67
2022/05/09 00:49:27;;;;;;;12.65;4.07;;;3.90;99.90;;;;;;5014556;28;20026;-67
2022/05/09 00:51:56;;;;;;;11.27;4.72;;;3.80;99.90;;;;;;5015023;28;20053;-66
2022/05/09 00:54:25;;;;;;;11.23;4.43;;;3.80;99.90;;;;;;5014617;28;20034;-66
2022/05/09 00:57:00;;;;;;;10.65;5.22;;;3.80;99.90;;;;;;5014571;28;20022;-68
2022/05/09 00:59:27;;;;;;;9.98;4.72;;;3.70;99.90;;;;;;5014553;28;20018;-68
2022/05/09 01:01:54;;;;;;;14.48;4.70;;;3.70;99.90;;;;;;5014119;28;20549;-67
2022/05/09 01:04:24;;;;;;;12.77;5.40;;;3.70;99.90;;;;;;5014514;28;20053;-67
2022/05/09 01:06:50;;;;;;;15.85;4.82;;;3.70;99.90;;;;;;5014728;28;20390;-67
2022/05/09 01:09:15;;;;;;;14.98;5.10;;;3.70;99.90;;;;;;5013925;28;20022;-66
2022/05/09 01:11:43;;;;;;;10.45;5.35;;;3.70;99.90;;;;;;5014620;28;20026;-67
2022/05/09 01:14:14;;;;;;;14.45;4.45;;;3.70;99.90;;;;;;5014260;28;20113;-67
2022/05/09 01:16:40;;;;;;;14.05;5.93;;;3.70;99.90;;;;;;5014628;28;20014;-67
2022/05/09 01:19:17;;;;;;;9.35;4.47;;;3.70;99.90;;;;;;5014222;28;20020;-67
2022/05/09 01:21:42;;;;;;;11.63;4.97;;;3.70;99.90;;;;;;5013924;28;20017;-67
2022/05/09 01:24:21;;;;;;;19.48;5.32;;;3.70;99.90;;;;;;5014184;28;20117;-67
2022/05/09 01:26:47;;;;;;;19.23;5.65;;;3.80;99.90;;;;;;5014146;28;20026;-66
2022/05/09 01:29:30;;;;;;;13.40;5.18;;;3.80;99.90;;;;;;5014019;28;20026;-66
2022/05/09 01:31:57;;;;;;;18.52;5.45;;;3.80;99.90;;;;;;5014298;28;20529;-67
2022/05/09 01:34:25;;;;;;;10.85;4.85;;;3.80;99.90;;;;;;5013929;28;20026;-66
2022/05/09 01:36:57;;;;;;;11.02;4.78;;;3.80;99.90;;;;;;5013433;28;20378;-66
2022/05/09 01:39:24;;;;;;;13.57;4.95;;;3.90;99.90;;;;;;5014028;28;20036;-67
2022/05/09 01:41:50;;;;;;;12.57;5.03;;;3.80;99.90;;;;;;5013879;28;20025;-66
2022/05/09 01:44:17;;;;;;;12.73;5.00;;;3.80;99.90;;;;;;5013858;28;20022;-66
2022/05/09 01:49:31;;;;;;;18.35;5.45;;;3.80;99.90;;;;;;5013979;28;20076;-66
2022/05/09 01:52:01;;;;;;;13.25;5.47;;;3.80;99.90;;;;;;5014052;28;20072;-66
2022/05/09 01:54:27;;;;;;;20.23;5.50;;;3.80;99.90;;;;;;5011554;28;20520;-66
2022/05/09 01:56:53;;;;;;;13.65;5.53;;;3.80;99.90;;;;;;5013141;28;20029;-67
2022/05/09 01:59:19;;;;;;;15.25;5.25;;;3.80;99.90;;;;;;5013672;28;20084;-66
2022/05/09 02:01:48;;;;;;;16.20;5.38;;;3.80;99.90;;;;;;5013660;28;20492;-66
2022/05/09 02:04:15;;;;;;;12.15;4.72;;;3.70;99.90;;;;;;5013623;28;20025;-66
2022/05/09 02:06:41;;;;;;;14.07;4.57;;;3.70;99.90;;;;;;5014166;28;20026;-67
2022/05/09 02:09:06;;;;;;;21.50;5.68;;;3.70;99.90;;;;;;5013537;28;20026;-66
2022/05/09 02:11:32;;;;;;;13.68;5.88;;;3.70;99.90;;;;;;5012975;28;20033;-67
2022/05/09 02:13:58;;;;;;;13.43;5.20;;;3.60;99.90;;;;;;5013428;28;20042;-67
2022/05/09 02:16:24;;;;;;;13.40;5.25;;;3.60;99.90;;;;;;5013780;28;20037;-67
2022/05/09 02:18:49;;;;;;;16.75;5.85;;;3.60;99.90;;;;;;5013441;28;20026;-67
2022/05/09 02:21:15;;;;;;;23.77;6.70;;;3.60;99.90;;;;;;5013525;28;20112;-66
2022/05/09 02:23:42;;;;;;;15.00;6.93;;;3.60;99.90;;;;;;5012907;28;20070;-67
2022/05/09 02:26:08;;;;;;;19.77;6.10;;;3.60;99.90;;;;;;5013395;28;20034;-67
2022/05/09 02:28:34;;;;;;;14.15;6.28;;;3.60;99.90;;;;;;5013293;28;20037;-67
2022/05/09 02:31:00;;;;;;;9.80;5.00;;;3.60;99.90;;;;;;5012899;28;20570;-67
2022/05/09 02:33:26;;;;;;;12.93;5.55;;;3.60;99.90;;;;;;5013278;28;20108;-67
2022/05/09 02:35:51;;;;;;;19.58;6.30;;;3.50;99.90;;;;;;5013359;28;20057;-67
2022/05/09 02:38:18;;;;;;;18.92;6.32;;;3.50;99.90;;;;;;5012848;28;20109;-67
2022/05/09 02:40:44;;;;;;;20.08;5.88;;;3.50;99.90;;;;;;5013518;28;20034;-66
2022/05/09 02:43:09;;;;;;;20.58;6.03;;;3.50;99.90;;;;;;5013965;28;20386;-67
2022/05/09 02:45:35;;;;;;;15.98;5.82;;;3.50;99.90;;;;;;5017251;28;20169;-67
2022/05/09 02:48:01;;;;;;;17.60;6.68;;;3.50;99.90;;;;;;5016783;28;20121;-67
2022/05/09 02:50:27;;;;;;;18.58;7.10;;;3.50;99.90;;;;;;5017289;28;20029;-67
2022/05/09 02:52:54;;;;;;;13.35;5.75;;;3.50;99.90;;;;;;5016463;28;20026;-66
2022/05/09 02:55:21;;;;;;;14.65;5.47;;;3.50;99.90;;;;;;5017225;28;20042;-66
2022/05/09 02:57:48;;;;;;;17.45;6.45;;;3.40;99.90;;;;;;5017089;28;20121;-67
2022/05/09 03:00:18;;;;;;;13.40;6.57;;;3.50;99.90;;;;;;5017114;28;20021;-67
2022/05/09 03:04:38;;;;;;;14.68;6.20;;;3.40;99.90;;;;;;5016142;28;20431;-67
2022/05/09 03:05:30;;;;;;;10.23;5.22;;;3.40;99.90;;;;;;5016545;28;20113;-66
2022/05/09 03:07:56;;;;;;;17.45;5.75;;;3.30;99.90;;;;;;5016873;28;20097;-66
2022/05/09 03:10:23;;;;;;;15.05;7.30;;;3.30;99.90;;;;;;5016867;28;20025;-66
2022/05/09 03:12:49;;;;;;;12.13;5.82;;;3.30;99.90;;;;;;5016735;28;20030;-66
2022/05/09 03:15:16;;;;;;;13.75;5.90;;;3.30;99.90;;;;;;5016105;28;20018;-67
2022/05/09 03:17:41;;;;;;;15.10;5.93;;;3.30;99.90;;;;;;5016758;28;20014;-67
2022/05/09 03:20:07;;;;;;;15.20;6.63;;;3.30;99.90;;;;;;5016422;28;20029;-66
2022/05/09 03:22:33;;;;;;;14.52;5.35;;;3.30;99.90;;;;;;5016427;28;20025;-67
2022/05/09 03:24:59;;;;;;;14.32;6.22;;;3.30;99.90;;;;;;5016531;28;20101;-67
2022/05/09 03:27:25;;;;;;;15.27;6.38;;;3.40;99.90;;;;;;5015956;28;20105;-67
2022/05/09 03:29:50;;;;;;;14.43;6.00;;;3.30;99.90;;;;;;5016621;28;20030;-67
2022/05/09 03:32:15;;;;;;;17.48;6.78;;;3.30;99.90;;;;;;5016232;28;20026;-67
2022/05/09 03:34:41;;;;;;;18.55;6.05;;;3.30;99.90;;;;;;5016129;28;20026;-66
2022/05/09 03:37:07;;;;;;;13.82;6.47;;;3.30;99.90;;;;;;5016431;28;20042;-67
2022/05/09 03:39:33;;;;;;;12.73;6.22;;;3.30;99.90;;;;;;5016032;28;20152;-67
2022/05/09 03:41:58;;;;;;;17.13;6.50;;;3.30;99.90;;;;;;5015720;28;20049;-67
2022/05/09 03:44:24;;;;;;;15.40;7.57;;;3.30;99.90;;;;;;5016274;28;20115;-66
2022/05/09 03:46:49;;;;;;;14.52;6.68;;;3.40;99.90;;;;;;5015941;28;20131;-66
2022/05/09 03:49:15;;;;;;;24.40;7.28;;;3.40;99.90;;;;;;5015806;28;20038;-67
2022/05/09 03:51:40;;;;;;;17.35;6.57;;;3.40;99.90;;;;;;5015474;28;20116;-66
2022/05/09 03:54:06;;;;;;;17.92;6.93;;;3.40;99.90;;;;;;5015353;28;20076;-66
2022/05/09 03:56:31;;;;;;;16.55;7.15;;;3.40;99.90;;;;;;5015221;28;20382;-67
2022/05/09 03:58:57;;;;;;;16.67;8.18;;;3.50;99.90;;;;;;5015647;28;20068;-67
2022/05/09 04:01:22;;;;;;;16.02;7.20;;;3.50;99.90;;;;;;5015549;28;20030;-66
2022/05/09 04:03:48;;;;;;;21.65;6.95;;;3.50;99.90;;;;;;5015895;28;20034;-67
2022/05/09 04:06:14;;;;;;;23.80;9.18;;;3.50;99.90;;;;;;5015161;28;20100;-67
2022/05/09 04:08:40;;;;;;;12.50;6.72;;;3.50;99.90;;;;;;5015652;28;20107;-67
2022/05/09 04:11:05;;;;;;;20.48;7.72;;;3.60;99.90;;;;;;5015724;28;20022;-66
2022/05/09 04:13:30;;;;;;;17.08;8.27;;;3.60;99.90;;;;;;5015392;28;20026;-66
2022/05/09 04:18:42;;;;;;;;;;;3.70;99.90;;;;;;5015256;28;20080;-67
2022/05/09 04:21:09;;;;;;;24.10;9.88;;;3.70;99.90;;;;;;5015306;28;19912;-67
2022/05/09 04:23:35;;;;;;;25.92;8.48;;;3.80;99.90;;;;;;5015460;28;20087;-67
2022/05/09 04:26:01;;;;;;;21.52;8.23;;;3.80;99.90;;;;;;5015492;28;20120;-67
2022/05/09 04:28:27;;;;;;;18.38;8.35;;;3.90;99.90;;;;;;5015063;28;20566;-67
2022/05/09 04:30:53;;;;;;;19.75;9.65;;;3.90;99.90;;;;;;5015130;28;20057;-67
2022/05/09 04:33:18;;;;;;;24.23;10.65;;;4.10;99.90;;;;;;5014566;28;20507;-67
2022/05/09 04:35:44;;;;;;;25.10;10.55;;;4.20;99.90;;;;;;5015004;28;20115;-66
2022/05/09 04:38:22;;;;;;;26.73;10.10;;;4.20;99.90;;;;;;5015028;28;20022;-66
2022/05/09 04:40:51;;;;;;;16.25;8.65;;;4.30;99.90;;;;;;5014659;28;20022;-66
2022/05/09 04:43:19;;;;;;;21.88;9.77;;;4.40;99.90;;;;;;5015100;28;20034;-66
2022/05/09 04:45:44;;;;;;;30.27;11.00;;;4.50;99.90;;;;;;5015367;28;20109;-67
2022/05/09 04:48:10;;;;;;;25.42;10.20;;;4.60;99.90;;;;;;5014619;28;20057;-67
2022/05/09 04:50:37;;;;;;;24.63;11.65;;;4.70;99.90;;;;;;5015021;28;20056;-67
2022/05/09 04:53:02;;;;;;;22.38;10.75;;;4.80;99.90;;;;;;5014595;28;20105;-67
2022/05/09 04:55:29;;;;;;;25.23;11.48;;;4.90;99.90;;;;;;5013915;28;20030;-67
2022/05/09 04:57:55;;;;;;;31.58;11.80;;;5.10;99.90;;;;;;5014836;28;20110;-67
2022/05/09 05:00:25;;;;;;;24.33;11.38;;;5.20;99.90;;;;;;5014640;28;20018;-67
2022/05/09 05:02:51;;;;;;;36.30;14.25;;;5.40;99.90;;;;;;5014270;28;20554;-67
2022/05/09 05:05:16;;;;;;;31.75;13.95;;;5.50;99.90;;;;;;5014548;28;20021;-67
2022/05/09 05:07:42;;;;;;;29.02;12.45;;;5.70;99.90;;;;;;5014262;28;20014;-67
2022/05/09 05:10:08;;;;;;;22.50;12.95;;;5.90;99.90;;;;;;5014393;28;20033;-67
2022/05/09 05:12:34;;;;;;;29.10;11.93;;;6.10;99.90;;;;;;5014112;28;20022;-67
2022/05/09 05:15:00;;;;;;;26.10;12.50;;;6.20;99.90;;;;;;5014543;28;20036;-67
2022/05/09 05:17:26;;;;;;;29.73;13.70;;;6.30;99.90;;;;;;5014703;28;20044;-67
2022/05/09 05:19:51;;;;;;;32.00;13.20;;;6.50;99.90;;;;;;5014552;28;20401;-67
2022/05/09 05:22:17;;;;;;;31.17;13.05;;;6.60;99.90;;;;;;5014431;28;20044;-67
2022/05/09 05:24:44;;;;;;;27.08;13.60;;;6.80;99.90;;;;;;5013727;28;20061;-67
2022/05/09 05:27:12;;;;;;;30.77;14.48;;;7.00;99.90;;;;;;5014173;28;20532;-67
2022/05/09 05:29:38;;;;;;;28.02;13.73;;;7.20;99.90;;;;;;5014345;28;20084;-66
2022/05/09 05:32:36;;;;;;;27.13;12.45;;;7.30;99.90;;;;;;5014359;28;20030;-67
2022/05/09 05:35:07;;;;;;;24.30;13.32;;;7.60;99.90;;;;;;5001933;28;20038;-66
2022/05/09 05:37:33;;;;;;;29.65;13.52;;;7.70;99.90;;;;;;5014328;28;20026;-66
2022/05/09 05:40:00;;;;;;;34.08;14.40;;;7.90;99.90;;;;;;5013785;28;20398;-66
2022/05/09 05:42:26;;;;;;;27.17;14.25;;;8.10;99.90;;;;;;5014222;28;20030;-66
2022/05/09 05:44:52;;;;;;;28.35;13.82;;;8.30;99.90;;;;;;5013486;28;20026;-67
2022/05/09 05:47:19;;;;;;;29.85;13.43;;;8.50;99.90;;;;;;5013827;28;20088;-67
2022/05/09 05:49:45;;;;;;;29.05;12.13;;;8.70;99.90;;;;;;5014044;28;20141;-66
2022/05/09 05:52:12;;;;;;;19.80;12.02;;;8.90;99.90;;;;;;5013859;28;20050;-66
2022/05/09 05:54:40;;;;;;;26.30;10.73;;;9.10;99.90;;;;;;5013989;28;20529;-66
2022/05/09 05:57:27;;;;;;;23.83;10.82;;;9.30;99.90;;;;;;5013231;28;20096;-67
2022/05/09 05:59:56;;;;;;;16.60;9.68;;;9.50;99.90;;;;;;5013236;28;20038;-68
2022/05/09 06:02:23;;;;;;;14.55;7.40;;;9.70;99.90;;;;;;5013762;28;20026;-67
2022/05/09 06:04:49;;;;;;;14.20;6.97;;;9.90;99.90;;;;;;5013735;28;20037;-66
2022/05/09 06:07:16;;;;;;;21.48;5.88;;;10.10;99.90;;;;;;5014143;28;20366;-66
2022/05/09 06:09:44;;;;;;;13.93;5.97;;;10.30;99.90;;;;;;5013116;28;20022;-67
2022/05/09 06:12:11;;;;;;;11.35;5.22;;;10.60;99.90;;;;;;5013643;28;20367;-65
2022/05/09 06:14:37;;;;;;;12.40;5.85;;;10.80;99.90;;;;;;5013500;28;20025;-66
2022/05/09 06:17:04;;;;;;;10.02;4.20;;;11.00;99.90;;;;;;5013800;28;20383;-67
2022/05/09 06:19:30;;;;;;;12.10;4.75;;;11.20;99.90;;;;;;5016033;28;20057;-67
2022/05/09 06:21:57;;;;;;;15.10;4.68;;;11.40;99.90;;;;;;5017707;28;20030;-67
2022/05/09 06:24:22;;;;;;;15.35;5.05;;;11.60;99.90;;;;;;5017733;28;20021;-68
2022/05/09 06:26:49;;;;;;;13.30;4.53;;;11.80;99.90;;;;;;5017704;28;20470;-68
2022/05/09 06:29:14;;;;;;;19.27;5.38;;;11.90;99.90;;;;;;5017899;28;20057;-68
2022/05/09 06:31:40;;;;;;;11.02;4.25;;;12.10;99.90;;;;;;5016723;28;20025;-67
2022/05/09 06:34:08;;;;;;;10.25;4.10;;;12.30;99.90;;;;;;5017221;28;20026;-67
2022/05/09 06:36:36;;;;;;;19.05;5.88;;;12.40;99.90;;;;;;5017535;28;20025;-68
2022/05/09 06:39:04;;;;;;;10.30;4.82;;;12.50;99.90;;;;;;5017279;28;20104;-67
2022/05/09 06:41:29;;;;;;;23.27;4.93;;;12.70;99.90;;;;;;5017169;28;20076;-67
2022/05/09 06:43:55;;;;;;;9.23;3.78;;;12.70;99.90;;;;;;5017658;28;20030;-67
2022/05/09 06:46:21;;;;;;;16.17;4.00;;;12.90;99.90;;;;;;5017370;28;20034;-67
2022/05/09 06:48:46;;;;;;;9.75;3.95;;;13.10;99.90;;;;;;5016845;28;20038;-67
2022/05/09 06:51:12;;;;;;;15.45;5.18;;;13.20;99.90;;;;;;5016674;28;20033;-67
2022/05/09 06:53:37;;;;;;;9.63;3.80;;;13.30;99.90;;;;;;5017198;28;20038;-67
2022/05/09 06:56:04;;;;;;;11.65;3.30;;;13.40;99.90;;;;;;5016978;28;20030;-67
2022/05/09 06:58:29;;;;;;;18.08;3.53;;;13.60;99.90;;;;;;5017076;28;20022;-67
2022/05/09 07:00:56;;;;;;;14.20;3.88;;;13.70;99.90;;;;;;5016400;28;20029;-67
2022/05/09 07:03:22;;;;;;;12.55;3.28;;;13.80;99.90;;;;;;5016832;28;20432;-66
2022/05/09 07:05:49;;;;;;;6.60;2.88;;;13.90;99.90;;;;;;5016827;28;20018;-66
2022/05/09 07:08:15;;;;;;;19.63;4.40;;;14.00;99.90;;;;;;5016867;28;20405;-66
2022/05/09 07:10:42;;;;;;;13.85;3.40;;;14.30;99.90;;;;;;5016167;28;20022;-66
2022/05/09 07:13:07;;;;;;;17.10;3.65;;;14.40;99.90;;;;;;5016884;28;20026;-67
2022/05/09 07:15:34;;;;;;;13.32;2.92;;;14.50;99.90;;;;;;5016850;28;20191;-67
2022/05/09 07:18:00;;;;;;;13.02;3.40;;;14.70;99.90;;;;;;5016596;28;20030;-67
2022/05/09 07:20:28;;;;;;;12.48;3.08;;;14.90;99.90;;;;;;5016238;28;20026;-67
2022/05/09 07:22:56;;;;;;;17.90;3.05;;;14.90;99.90;;;;;;5016755;28;20061;-68
2022/05/09 07:25:24;;;;;;;15.13;3.05;;;15.00;99.90;;;;;;5016927;28;20026;-68
2022/05/09 07:27:50;;;;;;;20.73;3.30;;;15.10;99.90;;;;;;5016166;28;20022;-67
2022/05/09 07:30:19;;;;;;;13.68;3.28;;;15.20;99.90;;;;;;5016124;28;20100;-67
2022/05/09 07:32:45;;;;;;;12.25;2.90;;;15.40;99.90;;;;;;5015733;28;20026;-68
2022/05/09 07:35:13;;;;;;;11.00;2.97;;;15.40;99.90;;;;;;5016119;28;20054;-67
2022/05/09 07:37:40;;;;;;;13.93;4.07;;;15.60;99.90;;;;;;5016316;28;20034;-68
2022/05/09 07:40:09;;;;;;;11.18;2.90;;;15.70;99.90;;;;;;5015796;28;20025;-67
2022/05/09 07:42:34;;;;;;;9.60;2.50;;;15.90;99.90;;;;;;5016265;28;20390;-67
2022/05/09 07:45:02;;;;;;;14.50;3.22;;;16.00;99.90;;;;;;5014851;28;20022;-67
2022/05/09 07:47:29;;;;;;;8.80;2.53;;;16.10;99.90;;;;;;5015981;28;20084;-67
2022/05/09 07:49:55;;;;;;;17.45;2.53;;;16.10;99.90;;;;;;5015438;28;20037;-66
2022/05/09 07:52:20;;;;;;;12.88;2.72;;;16.20;99.90;;;;;;5016954;28;20105;-66
2022/05/09 07:54:46;;;;;;;8.75;2.75;;;16.30;99.90;;;;;;5015879;28;20034;-67
2022/05/09 07:57:13;;;;;;;12.13;3.05;;;16.40;99.90;;;;;;5015791;28;20098;-67
2022/05/09 07:59:39;;;;;;;7.57;2.28;;;16.40;99.90;;;;;;5015869;28;20557;-67
2022/05/09 08:02:04;;;;;;;8.48;2.75;;;16.60;99.90;;;;;;5015246;28;20058;-67
2022/05/09 08:04:30;;;;;;;8.32;2.20;;;16.60;99.90;;;;;;5015691;28;20490;-67
2022/05/09 08:06:55;;;;;;;11.13;1.92;;;16.70;99.90;;;;;;5015670;28;20026;-67
2022/05/09 08:09:21;;;;;;;8.43;2.33;;;16.90;99.90;;;;;;5016053;28;20449;-67
2022/05/09 08:11:46;;;;;;;11.00;2.47;;;17.00;99.90;;;;;;5015752;28;20030;-67
2022/05/09 08:14:13;;;;;;;5.38;1.80;;;17.10;99.90;;;;;;5015369;28;20030;-67
2022/05/09 08:16:39;;;;;;;8.60;2.28;;;17.40;99.90;;;;;;5015265;28;20026;-67
2022/05/09 08:19:05;;;;;;;7.90;2.03;;;17.60;99.90;;;;;;5015920;28;20425;-68
2022/05/09 08:21:31;;;;;;;16.30;2.85;;;17.50;99.90;;;;;;5015210;28;20100;-67
2022/05/09 08:23:59;;;;;;;11.48;2.47;;;17.50;99.90;;;;;;5015280;28;20036;-66
2022/05/09 08:26:25;;;;;;;13.50;3.50;;;17.50;99.90;;;;;;5029981;28;20060;-66
2022/05/09 08:28:56;;;;;;;9.57;2.78;;;17.50;99.90;;;;;;5015098;28;20045;-64
2022/05/09 08:31:22;;;;;;;10.05;3.38;;;17.60;99.90;;;;;;5015259;28;20466;-67
2022/05/09 08:33:50;;;;;;;6.05;2.15;;;17.90;99.90;;;;;;5015119;28;20029;-64
2022/05/09 08:39:01;;;;;;;12.20;2.45;;;18.00;99.90;;;;;;5015458;28;20040;-64
2022/05/09 08:41:33;;;;;;;6.10;2.15;;;18.00;99.90;;;;;;5014312;28;20093;-64
2022/05/09 08:44:16;;;;;;;6.75;2.70;;;18.10;99.90;;;;;;5015015;28;20030;-64
2022/05/09 08:47:03;;;;;;;8.25;2.38;;;18.30;99.90;;;;;;5015201;28;20053;-64
2022/05/09 08:49:43;;;;;;;9.55;3.00;;;18.50;99.90;;;;;;5015079;28;20040;-64
2022/05/09 08:52:54;;;;;;;6.18;2.35;;;18.70;99.90;;;;;;5014613;28;20084;-65
2022/05/09 08:55:32;;;;;;;8.35;2.33;;;18.80;99.90;;;;;;5005936;28;20060;-67
2022/05/09 08:58:13;;;;;;;7.72;2.80;;;19.10;99.90;;;;;;5014958;28;20083;-67
2022/05/09 09:00:39;;;;;;;8.32;1.85;;;19.20;99.90;;;;;;5014991;28;20172;-67
2022/05/09 09:03:28;;;;;;;8.25;2.53;;;19.20;99.90;;;;;;5014217;28;20105;-70
2022/05/09 09:06:03;;;;;;;11.57;2.92;;;19.40;99.90;;;;;;5015181;28;20370;-69
2022/05/09 09:08:57;;;;;;;11.35;2.50;;;19.60;99.90;;;;;;5014770;28;20043;-68
2022/05/09 09:11:45;;;;;;;4.53;1.65;;;19.80;99.90;;;;;;5014598;28;20389;-65
2022/05/09 09:14:38;;;;;;;9.23;2.55;;;19.60;99.90;;;;;;5014707;28;20034;-67
2022/05/09 09:17:29;;;;;;;12.38;2.40;;;19.50;99.90;;;;;;5013921;28;20433;-67
2022/05/09 09:20:17;;;;;;;12.90;2.97;;;19.50;99.90;;;;;;5014822;28;20034;-66
2022/05/09 09:23:05;;;;;;;8.57;2.30;;;19.70;99.10;;;;;;5014332;28;20029;-65
2022/05/09 09:25:56;;;;;;;13.93;2.17;;;19.80;99.90;;;;;;5013999;28;20030;-67
2022/05/09 09:28:47;;;;;;;8.25;2.45;;;19.90;99.20;;;;;;5014363;28;20030;-67
2022/05/09 09:31:27;;;;;;;11.90;2.00;;;19.90;99.90;;;;;;5008536;28;20037;-65
2022/05/09 09:34:17;;;;;;;13.50;2.75;;;20.00;99.90;;;;;;5014285;28;20075;-65
2022/05/09 09:36:52;;;;;;;8.77;2.53;;;19.70;97.60;;;;;;5014323;28;20096;-65
2022/05/09 09:39:19;;;;;;;9.45;2.60;;;19.90;99.90;;;;;;5013563;28;20470;-65
2022/05/09 09:41:47;;;;;;;18.27;2.97;;;20.30;98.90;;;;;;5013959;28;20022;-66
2022/05/09 09:44:27;;;;;;;13.98;2.28;;;20.60;97.90;;;;;;5014347;28;20092;-66
2022/05/09 09:47:30;;;;;;;10.93;2.25;;;20.70;99.20;;;;;;5013861;28;20033;-66
2022/05/09 09:50:17;;;;;;;6.85;2.20;;;20.70;95.10;;;;;;5011556;28;20037;-66
2022/05/09 09:52:46;;;;;;;7.90;2.55;;;20.50;96.80;;;;;;5012636;28;20088;-66
2022/05/09 09:55:29;;;;;;;8.45;2.67;;;20.60;97.20;;;;;;5013821;28;20038;-66
2022/05/09 09:57:57;;;;;;;7.27;2.77;;;21.10;98.00;;;;;;5013985;28;20072;-66
2022/05/09 10:00:31;;;;;;;8.30;2.25;;;21.50;96.20;;;;;;5013726;28;20641;-66
2022/05/09 10:03:19;;;;;;;10.25;2.40;;;21.40;93.30;;;;;;5013977;28;20101;-66
2022/05/09 10:05:45;;;;;;;11.77;2.58;;;21.50;95.50;;;;;;5013471;28;20041;-65
2022/05/09 10:08:22;;;;;;;7.10;2.20;;;21.80;96.30;;;;;;5013554;28;20034;-65
2022/05/09 10:11:20;;;;;;;8.00;2.30;;;22.10;94.60;;;;;;5014209;28;20089;-65
2022/05/09 10:13:49;;;;;;;6.50;2.25;;;22.40;91.90;;;;;;5013140;28;20029;-65
2022/05/09 10:16:31;;;;;;;8.40;2.20;;;22.20;91.20;;;;;;5013912;28;20026;-65
2022/05/09 10:18:58;;;;;;;11.32;1.95;;;22.10;91.80;;;;;;5013750;28;20050;-65
2022/05/09 10:24:51;;;;;;;4.22;2.08;;;22.30;89.90;;;;;;5013831;28;20447;-66
2022/05/09 10:27:22;;;;;;;13.55;1.88;;;22.20;86.40;;;;;;5013238;28;20030;-66
2022/05/09 10:29:51;;;;;;;6.15;2.00;;;22.00;90.80;;;;;;5013525;28;20030;-65
2022/05/09 10:32:44;;;;;;;4.85;2.15;;;22.20;87.60;;;;;;5013612;28;20073;-66
2022/05/09 10:35:52;;;;;;;6.93;2.00;;;22.20;80.10;;;;;;5012596;28;20520;-66
2022/05/09 10:38:23;;;;;;;6.90;2.17;;;22.10;80.10;;;;;;4972368;28;20034;-66
2022/05/09 10:40:54;;;;;;;12.20;2.45;;;22.00;81.90;;;;;;5006368;28;20041;-65
2022/05/09 10:43:35;;;;;;;11.07;2.22;;;22.40;85.30;;;;;;5009964;28;20029;-65
2022/05/09 10:46:09;;;;;;;10.57;2.10;;;22.60;86.60;;;;;;5011284;28;20021;-65
2022/05/09 10:49:05;;;;;;;5.95;2.30;;;23.00;86.20;;;;;;5012087;28;20041;-65
2022/05/09 10:51:40;;;;;;;4.60;2.10;;;23.50;87.80;;;;;;5011287;28;20028;-65
2022/05/09 10:54:12;;;;;;;8.48;2.60;;;23.50;82.30;;;;;;5013163;28;20466;-67
2022/05/09 10:57:18;;;;;;;11.70;2.00;;;23.70;84.40;;;;;;5012433;28;20026;-67
2022/05/09 10:59:45;;;;;;;8.55;1.90;;;24.00;81.60;;;;;;5012794;28;20036;-65
2022/05/09 11:02:27;;;;;;;4.65;2.17;;;24.40;80.30;;;;;;5012004;28;20033;-66
2022/05/09 11:04:55;;;;;;;9.13;2.00;;;24.60;78.40;;;;;;5007945;28;20446;-67
2022/05/09 11:07:35;;;;;;;10.25;2.15;;;24.40;72.20;;;;;;5016123;28;20029;-66
2022/05/09 11:10:07;;;;;;;11.35;2.72;;;24.20;76.30;;;;;;5015294;28;20038;-66
2022/05/09 11:12:37;;;;;;;21.30;2.28;;;24.30;75.00;;;;;;5016000;28;20061;-66
2022/05/09 11:15:21;;;;;;;7.45;2.22;;;24.40;71.50;;;;;;5016474;28;20492;-66
2022/05/09 11:18:10;;;;;;;13.85;2.40;;;24.30;72.70;;;;;;5015219;28;20486;-65
2022/05/09 11:21:23;;;;;;;12.05;2.15;;;24.50;73.90;;;;;;5015870;28;20034;-66
2022/05/09 11:23:53;;;;;;;9.60;2.00;;;24.50;69.00;;;;;;4982463;28;20046;-65
2022/05/09 11:26:33;;;;;;;9.13;1.77;;;24.20;67.70;;;;;;5016306;28;20496;-67
2022/05/09 11:29:24;;;;;;;8.73;2.50;;;24.00;74.50;;;;;;5016588;28;20064;-66
2022/05/09 11:32:26;;;;;;;8.23;1.77;;;24.50;78.50;;;;;;5015969;28;20474;-67
2022/05/09 11:35:25;;;;;;;11.55;2.22;;;25.00;66.00;;;;;;5016441;28;20044;-67
2022/05/09 11:38:00;;;;;;;6.82;1.60;;;24.40;65.40;;;;;;5016453;28;20100;-67
2022/05/09 11:40:41;;;;;;;9.38;1.83;;;24.20;68.30;;;;;;5015942;28;20032;-67
2022/05/09 11:43:32;;;;;;;11.60;2.63;;;24.00;66.00;;;;;;5016176;28;20560;-66
2022/05/09 11:46:06;;;;;;;8.20;2.15;;;23.90;67.60;;;;;;5016509;28;20037;-66
2022/05/09 11:49:09;;;;;;;7.63;2.72;;;23.70;66.10;;;;;;5015832;28;20029;-66
2022/05/09 11:51:48;;;;;;;7.15;2.70;;;23.50;66.70;;;;;;5016043;28;20026;-66
2022/05/09 11:54:23;;;;;;;12.38;2.80;;;24.20;68.10;;;;;;5015973;28;20088;-66
2022/05/09 11:57:01;;;;;;;10.15;2.17;;;24.60;65.10;;;;;;5015451;28;20113;-66
2022/05/09 11:59:30;;;;;;;6.68;1.83;;;25.20;67.70;;;;;;5011279;28;20100;-66
2022/05/09 12:02:03;;;;;;;15.98;2.72;;;26.10;66.70;;;;;;5015650;28;20022;-67
2022/05/09 12:04:31;;;;;;;7.00;2.47;;;26.10;61.90;;;;;;5015745;28;20040;-67
2022/05/09 12:06:57;;;;;;;13.40;2.83;;;26.50;60.10;;;;;;5015097;28;20648;-66
2022/05/09 12:09:54;;;;;;;8.52;2.60;;;26.20;62.60;;;;;;5015718;28;20029;-66
2022/05/09 12:12:41;;;;;;;4.78;1.90;;;26.30;58.00;;;;;;5007533;28;20077;-66
2022/05/09 12:15:15;;;;;;;8.50;2.05;;;26.40;65.00;;;;;;5015452;28;20041;-66
2022/05/09 12:17:48;;;;;;;8.20;1.98;;;26.90;60.40;;;;;;5015407;28;20472;-67
2022/05/09 12:20:36;;;;;;;5.07;1.85;;;27.00;61.90;;;;;;5015455;28;20442;-66
2022/05/09 12:23:31;;;;;;;7.38;2.28;;;27.00;59.50;;;;;;5014691;28;20072;-66
2022/05/09 12:26:01;;;;;;;6.32;2.42;;;27.10;58.70;;;;;;5015379;28;20140;-67
2022/05/09 12:28:43;;;;;;;8.65;2.40;;;27.40;59.20;;;;;;5015600;28;20034;-66
2022/05/09 12:31:27;;;;;;;10.52;2.58;;;27.40;58.20;;;;;;5015703;28;20438;-66
2022/05/09 12:33:54;;;;;;;6.32;2.35;;;27.40;57.70;;;;;;5014831;28;20033;-66
2022/05/09 12:36:26;;;;;;;7.20;2.42;;;27.20;58.60;;;;;;5015222;28;20054;-66
2022/05/09 12:38:54;;;;;;;6.88;2.13;;;27.10;55.00;;;;;;5015273;28;20474;-66
2022/05/09 12:41:25;;;;;;;6.82;2.13;;;27.20;59.00;;;;;;5015096;28;20037;-66
2022/05/09 12:44:07;;;;;;;7.75;2.53;;;27.90;58.20;;;;;;5015258;28;20398;-66
2022/05/09 12:46:37;;;;;;;15.83;2.43;;;28.60;58.10;;;;;;5015269;28;20045;-67
2022/05/09 12:49:06;;;;;;;11.43;1.95;;;28.90;58.40;;;;;;5014758;28;20038;-66
2022/05/09 12:51:39;;;;;;;7.05;1.95;;;29.00;55.40;;;;;;5014789;28;20414;-67
2022/05/09 12:54:11;;;;;;;23.30;2.88;;;29.40;56.70;;;;;;5014412;28;20025;-67
2022/05/09 12:56:39;;;;;;;6.30;2.13;;;29.50;54.20;;;;;;5014895;28;20056;-67
2022/05/09 12:59:07;;;;;;;10.02;2.13;;;28.70;52.70;;;;;;5014868;28;20018;-66
2022/05/09 13:01:34;;;;;;;8.43;2.00;;;28.40;55.30;;;;;;5014182;28;20063;-67
2022/05/09 13:04:06;;;;;;;6.53;2.00;;;28.30;53.00;;;;;;5014595;28;20033;-67
2022/05/09 13:06:38;;;;;;;11.70;2.15;;;27.40;55.00;;;;;;5014560;28;20079;-67
2022/05/09 13:09:49;;;;;;;8.80;1.92;;;27.90;53.10;;;;;;5014430;28;20057;-67
2022/05/09 13:12:42;;;;;;;6.97;2.13;;;28.30;51.60;;;;;;4973706;28;20035;-67
2022/05/09 13:15:15;;;;;;;7.43;2.83;;;28.30;54.00;;;;;;5014113;28;20532;-67